sensor_id;sensor_type;location;lat;lon;timestamp;pressure;altitude;pressure_sealevel;temperature;humidity
72024;BME280;59889;50.700;5.440;2023-02-02T00:00:07;100735.94;;;19.14;31.27
72024;BME280;59889;50.700;5.440;2023-02-02T00:02:31;100740.79;;;19.47;31.48
72024;BME280;59889;50.700;5.440;2023-02-02T00:04:56;100737.41;;;19.55;31.39
72024;BME280;59889;50.700;5.440;2023-02-02T00:07:21;100741.69;;;19.46;31.49
72024;BME280;59889;50.700;5.440;2023-02-02T00:09:46;100740.48;;;19.10;31.63
72024;BME280;59889;50.700;5.440;2023-02-02T00:12:11;100736.19;;;19.38;31.61
72024;BME280;59889;50.700;5.440;2023-02-02T00:14:37;100743.75;;;19.27;31.74
72024;BME280;59889;50.700;5.440;2023-02-02T00:17:02;100748.23;;;19.31;31.70
72024;BME280;59889;50.700;5.440;2023-02-02T00:19:28;100745.16;;;19.30;31.72
72024;BME280;59889;50.700;5.440;2023-02-02T00:21:52;100745.56;;;19.27;31.75
72024;BME280;59889;50.700;5.440;2023-02-02T00:24:18;100748.54;;;19.25;31.78
72024;BME280;59889;50.700;5.440;2023-02-02T00:26:43;100744.44;;;18.79;31.76
72024;BME280;59889;50.700;5.440;2023-02-02T00:29:13;100743.04;;;19.36;31.68
72024;BME280;59889;50.700;5.440;2023-02-02T00:31:33;100742.02;;;19.34;31.71
72024;BME280;59889;50.700;5.440;2023-02-02T00:33:58;100743.29;;;19.24;31.83
72024;BME280;59889;50.700;5.440;2023-02-02T00:36:23;100740.48;;;19.39;31.66
72024;BME280;59889;50.700;5.440;2023-02-02T00:38:49;100737.87;;;19.09;31.73
72024;BME280;59889;50.700;5.440;2023-02-02T00:41:13;100736.88;;;19.33;31.73
72024;BME280;59889;50.700;5.440;2023-02-02T00:43:38;100740.04;;;19.34;31.75
72024;BME280;59889;50.700;5.440;2023-02-02T00:46:03;100739.41;;;19.22;31.84
72024;BME280;59889;50.700;5.440;2023-02-02T00:48:28;100737.24;;;19.24;31.86
72024;BME280;59889;50.700;5.440;2023-02-02T00:50:53;100740.24;;;19.30;31.82
72024;BME280;59889;50.700;5.440;2023-02-02T00:53:19;100742.61;;;19.01;31.86
72024;BME280;59889;50.700;5.440;2023-02-02T00:55:43;100743.81;;;19.31;31.81
72024;BME280;59889;50.700;5.440;2023-02-02T00:58:09;100744.93;;;19.23;31.88
72024;BME280;59889;50.700;5.440;2023-02-02T01:00:34;100746.56;;;19.29;31.83
72024;BME280;59889;50.700;5.440;2023-02-02T01:02:59;100747.81;;;19.34;31.79
72024;BME280;59889;50.700;5.440;2023-02-02T01:05:24;100748.62;;;19.12;32.00
72024;BME280;59889;50.700;5.440;2023-02-02T01:07:49;100752.01;;;19.17;31.72
72024;BME280;59889;50.700;5.440;2023-02-02T01:10:15;100749.50;;;19.58;31.78
72024;BME280;59889;50.700;5.440;2023-02-02T01:12:40;100748.30;;;19.24;31.88
72024;BME280;59889;50.700;5.440;2023-02-02T01:15:05;100750.39;;;19.40;31.72
72024;BME280;59889;50.700;5.440;2023-02-02T01:17:29;100752.60;;;19.08;31.82
72024;BME280;59889;50.700;5.440;2023-02-02T01:19:54;100750.03;;;19.25;31.90
72024;BME280;59889;50.700;5.440;2023-02-02T01:22:20;100752.86;;;19.27;31.88
72024;BME280;59889;50.700;5.440;2023-02-02T01:24:45;100749.92;;;18.88;32.04
72024;BME280;59889;50.700;5.440;2023-02-02T01:27:10;100751.80;;;19.29;31.88
72024;BME280;59889;50.700;5.440;2023-02-02T01:29:35;100753.98;;;19.22;31.96
72024;BME280;59889;50.700;5.440;2023-02-02T01:32:00;100755.43;;;19.26;31.89
72024;BME280;59889;50.700;5.440;2023-02-02T01:34:25;100757.77;;;19.38;31.78
72024;BME280;59889;50.700;5.440;2023-02-02T01:36:50;100758.79;;;19.14;31.79
72024;BME280;59889;50.700;5.440;2023-02-02T01:39:15;100762.29;;;19.32;31.87
72024;BME280;59889;50.700;5.440;2023-02-02T01:41:40;100762.19;;;18.73;31.99
72024;BME280;59889;50.700;5.440;2023-02-02T01:46:33;100758.68;;;19.32;31.87
72024;BME280;59889;50.700;5.440;2023-02-02T01:49:00;100760.01;;;19.24;31.93
72024;BME280;59889;50.700;5.440;2023-02-02T01:51:24;100757.56;;;19.34;31.85
72024;BME280;59889;50.700;5.440;2023-02-02T01:53:48;100757.80;;;19.32;31.87
72024;BME280;59889;50.700;5.440;2023-02-02T01:56:14;100755.35;;;19.35;31.85
72024;BME280;59889;50.700;5.440;2023-02-02T01:58:38;100757.48;;;19.31;31.89
72024;BME280;59889;50.700;5.440;2023-02-02T02:01:02;100764.24;;;19.30;31.92
72024;BME280;59889;50.700;5.440;2023-02-02T02:03:29;100765.85;;;19.33;31.86
72024;BME280;59889;50.700;5.440;2023-02-02T02:05:55;100762.54;;;19.23;31.99
72024;BME280;59889;50.700;5.440;2023-02-02T02:08:18;100763.25;;;19.27;31.94
72024;BME280;59889;50.700;5.440;2023-02-02T02:10:42;100757.94;;;18.77;31.94
72024;BME280;59889;50.700;5.440;2023-02-02T02:13:07;100754.16;;;19.03;31.93
72024;BME280;59889;50.700;5.440;2023-02-02T02:15:39;100755.29;;;19.31;31.91
72024;BME280;59889;50.700;5.440;2023-02-02T02:18:05;100751.23;;;19.21;31.98
72024;BME280;59889;50.700;5.440;2023-02-02T02:20:35;100747.79;;;19.39;31.81
72024;BME280;59889;50.700;5.440;2023-02-02T02:23:02;100749.13;;;19.34;31.87
72024;BME280;59889;50.700;5.440;2023-02-02T02:30:16;100756.25;;;19.28;31.96
72024;BME280;59889;50.700;5.440;2023-02-02T02:32:34;100755.61;;;19.33;31.90
72024;BME280;59889;50.700;5.440;2023-02-02T02:34:57;100750.97;;;19.04;32.00
72024;BME280;59889;50.700;5.440;2023-02-02T02:37:26;100753.52;;;18.88;32.14
72024;BME280;59889;50.700;5.440;2023-02-02T02:39:48;100749.35;;;19.13;32.14
72024;BME280;59889;50.700;5.440;2023-02-02T02:42:11;100752.11;;;19.05;32.23
72024;BME280;59889;50.700;5.440;2023-02-02T02:44:34;100749.93;;;19.11;32.19
72024;BME280;59889;50.700;5.440;2023-02-02T02:46:59;100748.55;;;18.78;32.26
72024;BME280;59889;50.700;5.440;2023-02-02T02:49:23;100748.14;;;19.41;32.12
72024;BME280;59889;50.700;5.440;2023-02-02T02:51:50;100747.85;;;19.13;32.15
72024;BME280;59889;50.700;5.440;2023-02-02T02:54:18;100751.16;;;19.15;32.12
72024;BME280;59889;50.700;5.440;2023-02-02T02:56:50;100745.58;;;19.26;32.00
72024;BME280;59889;50.700;5.440;2023-02-02T02:59:08;100745.31;;;19.28;31.99
72024;BME280;59889;50.700;5.440;2023-02-02T03:01:35;100742.57;;;19.32;31.92
72024;BME280;59889;50.700;5.440;2023-02-02T03:04:05;100744.72;;;19.29;31.98
72024;BME280;59889;50.700;5.440;2023-02-02T03:06:22;100747.03;;;19.29;31.98
72024;BME280;59889;50.700;5.440;2023-02-02T03:08:47;100745.83;;;19.31;31.97
72024;BME280;59889;50.700;5.440;2023-02-02T03:11:11;100746.79;;;19.25;32.02
72024;BME280;59889;50.700;5.440;2023-02-02T03:13:35;100750.67;;;19.26;32.01
72024;BME280;59889;50.700;5.440;2023-02-02T03:16:00;100752.35;;;19.24;32.05
72024;BME280;59889;50.700;5.440;2023-02-02T03:18:27;100753.86;;;19.27;32.01
72024;BME280;59889;50.700;5.440;2023-02-02T03:20:50;100757.63;;;19.08;31.96
72024;BME280;59889;50.700;5.440;2023-02-02T03:23:15;100758.68;;;19.26;32.03
72024;BME280;59889;50.700;5.440;2023-02-02T03:25:40;100761.22;;;18.98;32.09
72024;BME280;59889;50.700;5.440;2023-02-02T03:28:05;100756.77;;;19.25;32.05
72024;BME280;59889;50.700;5.440;2023-02-02T03:30:31;100752.61;;;19.14;32.16
72024;BME280;59889;50.700;5.440;2023-02-02T03:32:55;100755.98;;;19.13;32.18
72024;BME280;59889;50.700;5.440;2023-02-02T03:35:20;100754.68;;;19.26;32.01
72024;BME280;59889;50.700;5.440;2023-02-02T03:37:46;100761.79;;;19.15;32.16
72024;BME280;59889;50.700;5.440;2023-02-02T03:40:11;100762.93;;;19.01;32.05
72024;BME280;59889;50.700;5.440;2023-02-02T03:42:36;100767.90;;;19.11;32.19
72024;BME280;59889;50.700;5.440;2023-02-02T03:45:01;100773.86;;;19.12;32.20
72024;BME280;59889;50.700;5.440;2023-02-02T03:47:27;100774.63;;;19.30;32.02
72024;BME280;59889;50.700;5.440;2023-02-02T03:49:51;100779.34;;;19.30;31.99
72024;BME280;59889;50.700;5.440;2023-02-02T03:52:16;100782.29;;;19.09;32.23
72024;BME280;59889;50.700;5.440;2023-02-02T03:54:41;100780.12;;;18.74;32.11
72024;BME280;59889;50.700;5.440;2023-02-02T03:57:06;100781.26;;;19.21;32.11
72024;BME280;59889;50.700;5.440;2023-02-02T03:59:31;100784.37;;;19.16;32.16
72024;BME280;59889;50.700;5.440;2023-02-02T04:01:56;100781.39;;;19.00;32.08
72024;BME280;59889;50.700;5.440;2023-02-02T04:04:22;100783.00;;;19.16;32.19
72024;BME280;59889;50.700;5.440;2023-02-02T04:06:47;100784.58;;;19.20;32.15
72024;BME280;59889;50.700;5.440;2023-02-02T04:09:12;100780.36;;;19.20;32.16
72024;BME280;59889;50.700;5.440;2023-02-02T04:11:37;100775.91;;;19.25;32.08
72024;BME280;59889;50.700;5.440;2023-02-02T04:14:02;100780.63;;;18.99;32.13
72024;BME280;59889;50.700;5.440;2023-02-02T04:16:27;100781.24;;;19.18;32.18
72024;BME280;59889;50.700;5.440;2023-02-02T04:18:52;100781.82;;;19.06;32.32
72024;BME280;59889;50.700;5.440;2023-02-02T04:21:17;100785.88;;;19.27;32.05
72024;BME280;59889;50.700;5.440;2023-02-02T04:23:42;100791.41;;;18.89;32.22
72024;BME280;59889;50.700;5.440;2023-02-02T04:26:07;100794.77;;;19.16;32.18
72024;BME280;59889;50.700;5.440;2023-02-02T04:28:33;100800.83;;;18.93;32.47
72024;BME280;59889;50.700;5.440;2023-02-02T04:30:58;100807.08;;;19.16;32.20
72024;BME280;59889;50.700;5.440;2023-02-02T04:33:24;100808.10;;;19.26;32.10
72024;BME280;59889;50.700;5.440;2023-02-02T04:35:48;100806.49;;;19.06;32.35
72024;BME280;59889;50.700;5.440;2023-02-02T04:38:13;100811.93;;;19.14;32.22
72024;BME280;59889;50.700;5.440;2023-02-02T04:40:40;100814.56;;;19.15;32.23
72024;BME280;59889;50.700;5.440;2023-02-02T04:43:03;100815.01;;;19.00;32.41
72024;BME280;59889;50.700;5.440;2023-02-02T04:45:28;100815.11;;;19.12;32.27
72024;BME280;59889;50.700;5.440;2023-02-02T04:47:53;100815.54;;;19.09;32.31
72024;BME280;59889;50.700;5.440;2023-02-02T04:50:18;100814.71;;;18.89;32.27
72024;BME280;59889;50.700;5.440;2023-02-02T04:52:44;100811.95;;;18.79;32.38
72024;BME280;59889;50.700;5.440;2023-02-02T04:55:09;100809.21;;;19.13;32.29
72024;BME280;59889;50.700;5.440;2023-02-02T04:57:34;100810.64;;;19.15;32.25
72024;BME280;59889;50.700;5.440;2023-02-02T04:59:59;100807.28;;;19.09;32.34
72024;BME280;59889;50.700;5.440;2023-02-02T05:02:24;100809.23;;;19.13;32.27
72024;BME280;59889;50.700;5.440;2023-02-02T05:04:49;100809.32;;;19.06;32.35
72024;BME280;59889;50.700;5.440;2023-02-02T05:07:14;100818.56;;;18.93;32.86
72024;BME280;59889;50.700;5.440;2023-02-02T05:09:49;100826.80;;;18.79;32.88
72024;BME280;59889;50.700;5.440;2023-02-02T05:12:04;100824.70;;;18.69;32.66
72024;BME280;59889;50.700;5.440;2023-02-02T05:14:30;100826.04;;;18.66;32.41
72024;BME280;59889;50.700;5.440;2023-02-02T05:16:55;100832.42;;;18.64;32.20
72024;BME280;59889;50.700;5.440;2023-02-02T05:19:20;100836.82;;;18.42;32.27
72024;BME280;59889;50.700;5.440;2023-02-02T05:21:45;100830.89;;;18.38;31.90
72024;BME280;59889;50.700;5.440;2023-02-02T05:24:10;100827.33;;;18.61;31.76
72024;BME280;59889;50.700;5.440;2023-02-02T05:26:35;100823.65;;;18.60;31.72
72024;BME280;59889;50.700;5.440;2023-02-02T05:29:01;100820.25;;;18.71;31.47
72024;BME280;59889;50.700;5.440;2023-02-02T05:31:26;100817.25;;;18.73;31.48
72024;BME280;59889;50.700;5.440;2023-02-02T05:33:52;100816.10;;;18.68;31.89
72024;BME280;59889;50.700;5.440;2023-02-02T05:36:17;100816.43;;;18.73;32.04
72024;BME280;59889;50.700;5.440;2023-02-02T05:38:42;100816.26;;;18.21;32.19
72024;BME280;59889;50.700;5.440;2023-02-02T05:41:07;100815.33;;;18.55;32.46
72024;BME280;59889;50.700;5.440;2023-02-02T05:43:32;100813.75;;;18.15;32.69
72024;BME280;59889;50.700;5.440;2023-02-02T05:45:57;100818.73;;;18.50;32.65
72024;BME280;59889;50.700;5.440;2023-02-02T05:48:22;100817.17;;;18.70;32.42
72024;BME280;59889;50.700;5.440;2023-02-02T05:50:55;100815.92;;;18.73;32.41
72024;BME280;59889;50.700;5.440;2023-02-02T05:53:12;100813.58;;;18.32;32.85
72024;BME280;59889;50.700;5.440;2023-02-02T05:55:38;100816.56;;;18.69;32.19
72024;BME280;59889;50.700;5.440;2023-02-02T05:58:03;100807.08;;;18.48;32.43
72024;BME280;59889;50.700;5.440;2023-02-02T06:00:28;100801.54;;;18.39;32.81
72024;BME280;59889;50.700;5.440;2023-02-02T06:03:03;100803.03;;;18.17;33.04
72024;BME280;59889;50.700;5.440;2023-02-02T06:05:18;100800.35;;;18.13;33.09
72024;BME280;59889;50.700;5.440;2023-02-02T06:07:43;100806.71;;;18.36;32.83
72024;BME280;59889;50.700;5.440;2023-02-02T06:10:09;100815.84;;;18.42;32.78
72024;BME280;59889;50.700;5.440;2023-02-02T06:12:33;100823.21;;;18.33;33.14
72024;BME280;59889;50.700;5.440;2023-02-02T06:14:58;100821.06;;;18.68;32.46
72024;BME280;59889;50.700;5.440;2023-02-02T06:17:23;100829.25;;;18.62;32.53
72024;BME280;59889;50.700;5.440;2023-02-02T06:19:48;100833.49;;;18.14;32.91
72024;BME280;59889;50.700;5.440;2023-02-02T06:22:14;100835.62;;;18.59;32.72
72024;BME280;59889;50.700;5.440;2023-02-02T06:24:39;100841.87;;;18.59;33.02
72024;BME280;59889;50.700;5.440;2023-02-02T06:27:04;100842.26;;;18.26;33.15
72024;BME280;59889;50.700;5.440;2023-02-02T06:29:29;100842.10;;;18.58;32.78
72024;BME280;59889;50.700;5.440;2023-02-02T06:31:54;100838.21;;;18.66;32.66
72024;BME280;59889;50.700;5.440;2023-02-02T06:34:19;100842.27;;;18.42;32.95
72024;BME280;59889;50.700;5.440;2023-02-02T06:36:44;100845.22;;;18.20;33.15
72024;BME280;59889;50.700;5.440;2023-02-02T06:39:09;100847.21;;;18.67;32.61
72024;BME280;59889;50.700;5.440;2023-02-02T06:41:35;100853.34;;;18.71;32.57
72024;BME280;59889;50.700;5.440;2023-02-02T06:44:00;100848.17;;;18.61;32.70
72024;BME280;59889;50.700;5.440;2023-02-02T06:46:25;100853.01;;;18.65;32.68
72024;BME280;59889;50.700;5.440;2023-02-02T06:48:50;100854.51;;;18.40;32.97
72024;BME280;59889;50.700;5.440;2023-02-02T06:51:15;100855.13;;;18.63;33.09
72024;BME280;59889;50.700;5.440;2023-02-02T06:53:40;100854.70;;;18.35;32.88
72024;BME280;59889;50.700;5.440;2023-02-02T06:56:08;100854.12;;;17.98;33.67
72024;BME280;59889;50.700;5.440;2023-02-02T06:58:31;100862.53;;;18.34;33.27
72024;BME280;59889;50.700;5.440;2023-02-02T07:01:00;100868.75;;;18.41;33.14
72024;BME280;59889;50.700;5.440;2023-02-02T07:03:22;100867.40;;;19.08;32.93
72024;BME280;59889;50.700;5.440;2023-02-02T07:05:47;100869.75;;;17.96;33.39
72024;BME280;59889;50.700;5.440;2023-02-02T07:08:11;100870.53;;;18.69;32.81
72024;BME280;59889;50.700;5.440;2023-02-02T07:10:36;100872.49;;;18.32;33.29
72024;BME280;59889;50.700;5.440;2023-02-02T07:13:01;100871.99;;;18.54;33.31
72024;BME280;59889;50.700;5.440;2023-02-02T07:15:26;100868.62;;;18.51;33.01
72024;BME280;59889;50.700;5.440;2023-02-02T07:17:53;100868.79;;;18.55;33.02
72024;BME280;59889;50.700;5.440;2023-02-02T07:20:16;100873.36;;;18.54;32.96
72024;BME280;59889;50.700;5.440;2023-02-02T07:22:41;100869.77;;;18.55;32.69
72024;BME280;59889;50.700;5.440;2023-02-02T07:25:17;100876.20;;;18.83;32.60
72024;BME280;59889;50.700;5.440;2023-02-02T07:27:32;100878.04;;;18.54;32.94
72024;BME280;59889;50.700;5.440;2023-02-02T07:29:57;100868.20;;;18.81;32.63
72024;BME280;59889;50.700;5.440;2023-02-02T07:32:22;100872.53;;;18.55;32.92
72024;BME280;59889;50.700;5.440;2023-02-02T07:34:48;100875.73;;;18.46;32.70
72024;BME280;59889;50.700;5.440;2023-02-02T07:37:13;100873.48;;;18.67;32.77
72024;BME280;59889;50.700;5.440;2023-02-02T07:39:38;100869.96;;;18.89;32.54
72024;BME280;59889;50.700;5.440;2023-02-02T07:42:04;100872.02;;;18.60;32.88
72024;BME280;59889;50.700;5.440;2023-02-02T07:44:28;100876.32;;;18.65;32.54
72024;BME280;59889;50.700;5.440;2023-02-02T07:46:53;100874.94;;;18.39;32.55
72024;BME280;59889;50.700;5.440;2023-02-02T07:49:18;100874.83;;;18.71;32.43
72024;BME280;59889;50.700;5.440;2023-02-02T07:51:43;100877.55;;;18.66;32.18
72024;BME280;59889;50.700;5.440;2023-02-02T07:54:09;100879.68;;;18.93;32.14
72024;BME280;59889;50.700;5.440;2023-02-02T07:56:34;100880.27;;;18.38;32.70
72024;BME280;59889;50.700;5.440;2023-02-02T07:58:59;100883.23;;;19.16;32.13
72024;BME280;59889;50.700;5.440;2023-02-02T08:01:25;100883.13;;;18.95;32.08
72024;BME280;59889;50.700;5.440;2023-02-02T08:03:49;100888.73;;;18.68;32.12
72024;BME280;59889;50.700;5.440;2023-02-02T08:06:17;100891.59;;;19.08;32.17
72024;BME280;59889;50.700;5.440;2023-02-02T08:08:39;100891.38;;;18.96;32.32
72024;BME280;59889;50.700;5.440;2023-02-02T08:11:07;100884.00;;;18.72;32.59
72024;BME280;59889;50.700;5.440;2023-02-02T08:13:29;100887.49;;;18.39;32.99
72024;BME280;59889;50.700;5.440;2023-02-02T08:15:56;100889.92;;;18.79;32.52
72024;BME280;59889;50.700;5.440;2023-02-02T08:18:22;100899.82;;;18.84;32.49
72024;BME280;59889;50.700;5.440;2023-02-02T08:20:45;100898.65;;;18.61;32.47
72024;BME280;59889;50.700;5.440;2023-02-02T08:23:10;100903.54;;;18.94;32.38
72024;BME280;59889;50.700;5.440;2023-02-02T08:25:35;100909.97;;;18.32;33.06
72024;BME280;59889;50.700;5.440;2023-02-02T08:28:00;100912.10;;;18.85;32.54
72024;BME280;59889;50.700;5.440;2023-02-02T08:30:25;100902.26;;;18.77;32.61
72024;BME280;59889;50.700;5.440;2023-02-02T08:32:50;100906.49;;;18.88;32.59
72024;BME280;59889;50.700;5.440;2023-02-02T08:35:15;100905.32;;;18.52;32.75
72024;BME280;59889;50.700;5.440;2023-02-02T08:37:42;100908.99;;;18.63;32.70
72024;BME280;59889;50.700;5.440;2023-02-02T08:40:07;100909.81;;;19.03;32.56
72024;BME280;59889;50.700;5.440;2023-02-02T08:42:31;100903.05;;;18.31;33.10
72024;BME280;59889;50.700;5.440;2023-02-02T08:44:56;100909.69;;;18.97;32.64
72024;BME280;59889;50.700;5.440;2023-02-02T08:47:21;100911.47;;;18.69;32.95
72024;BME280;59889;50.700;5.440;2023-02-02T08:49:46;100915.73;;;18.92;32.70
72024;BME280;59889;50.700;5.440;2023-02-02T08:52:11;100922.17;;;18.91;32.74
72024;BME280;59889;50.700;5.440;2023-02-02T08:54:36;100929.82;;;18.95;32.67
72024;BME280;59889;50.700;5.440;2023-02-02T08:57:01;100937.07;;;18.65;33.04
72024;BME280;59889;50.700;5.440;2023-02-02T08:59:27;100940.93;;;18.37;33.03
72024;BME280;59889;50.700;5.440;2023-02-02T09:01:52;100940.59;;;18.86;32.53
72024;BME280;59889;50.700;5.440;2023-02-02T09:04:19;100941.05;;;19.09;32.52
72024;BME280;59889;50.700;5.440;2023-02-02T09:06:42;100940.21;;;18.53;32.59
72024;BME280;59889;50.700;5.440;2023-02-02T09:09:10;100939.93;;;18.95;32.65
72024;BME280;59889;50.700;5.440;2023-02-02T09:11:33;100937.59;;;18.82;32.82
72024;BME280;59889;50.700;5.440;2023-02-02T09:13:58;100945.24;;;19.02;32.59
72024;BME280;59889;50.700;5.440;2023-02-02T09:16:23;100951.37;;;18.97;32.63
72024;BME280;59889;50.700;5.440;2023-02-02T09:18:47;100956.01;;;19.10;32.46
72024;BME280;59889;50.700;5.440;2023-02-02T09:21:15;100962.25;;;19.05;32.52
72024;BME280;59889;50.700;5.440;2023-02-02T09:23:39;100968.21;;;18.92;32.66
72024;BME280;59889;50.700;5.440;2023-02-02T09:26:09;100981.59;;;18.94;32.67
72024;BME280;59889;50.700;5.440;2023-02-02T09:28:28;100976.60;;;18.90;32.67
72024;BME280;59889;50.700;5.440;2023-02-02T09:30:53;100978.80;;;19.06;32.50
72024;BME280;59889;50.700;5.440;2023-02-02T09:33:18;100982.64;;;19.07;32.48
72024;BME280;59889;50.700;5.440;2023-02-02T09:35:43;100992.07;;;18.66;32.67
72024;BME280;59889;50.700;5.440;2023-02-02T09:38:09;101008.62;;;19.03;32.54
72024;BME280;59889;50.700;5.440;2023-02-02T09:40:34;101012.91;;;18.98;32.59
72024;BME280;59889;50.700;5.440;2023-02-02T09:43:05;101010.85;;;19.02;32.52
72024;BME280;59889;50.700;5.440;2023-02-02T09:46:16;101004.64;;;18.88;32.71
72024;BME280;59889;50.700;5.440;2023-02-02T09:47:52;101012.87;;;18.58;33.00
72024;BME280;59889;50.700;5.440;2023-02-02T09:50:17;101016.74;;;18.97;32.60
72024;BME280;59889;50.700;5.440;2023-02-02T09:52:41;101016.20;;;18.65;32.68
72024;BME280;59889;50.700;5.440;2023-02-02T09:55:11;101021.56;;;18.27;33.35
72024;BME280;59889;50.700;5.440;2023-02-02T09:57:41;101019.81;;;18.78;32.81
72024;BME280;59889;50.700;5.440;2023-02-02T09:59:55;101029.80;;;18.74;32.84
72024;BME280;59889;50.700;5.440;2023-02-02T10:02:23;101028.22;;;18.67;32.93
72024;BME280;59889;50.700;5.440;2023-02-02T10:04:48;101031.70;;;18.50;33.13
72024;BME280;59889;50.700;5.440;2023-02-02T10:07:13;101033.03;;;18.84;32.74
72024;BME280;59889;50.700;5.440;2023-02-02T10:09:39;101036.11;;;18.72;32.90
72024;BME280;59889;50.700;5.440;2023-02-02T10:12:10;101040.16;;;18.67;32.89
72024;BME280;59889;50.700;5.440;2023-02-02T10:14:35;101045.43;;;18.81;32.79
72024;BME280;59889;50.700;5.440;2023-02-02T10:16:53;101044.69;;;18.60;32.98
72024;BME280;59889;50.700;5.440;2023-02-02T10:19:16;101040.16;;;18.70;32.90
72024;BME280;59889;50.700;5.440;2023-02-02T10:21:59;101045.81;;;17.89;33.01
72024;BME280;59889;50.700;5.440;2023-02-02T10:24:13;101049.30;;;18.90;32.97
72024;BME280;59889;50.700;5.440;2023-02-02T10:26:36;101055.81;;;18.66;32.95
72024;BME280;59889;50.700;5.440;2023-02-02T10:29:05;101055.88;;;18.66;32.94
72024;BME280;59889;50.700;5.440;2023-02-02T10:31:32;101057.41;;;18.88;32.70
72024;BME280;59889;50.700;5.440;2023-02-02T10:33:56;101058.51;;;18.81;32.76
72024;BME280;59889;50.700;5.440;2023-02-02T10:36:16;101065.94;;;18.94;32.60
72024;BME280;59889;50.700;5.440;2023-02-02T10:38:40;101069.13;;;18.96;32.59
72024;BME280;59889;50.700;5.440;2023-02-02T10:41:10;101064.57;;;18.85;32.67
72024;BME280;59889;50.700;5.440;2023-02-02T10:43:52;101065.89;;;18.94;32.56
72024;BME280;59889;50.700;5.440;2023-02-02T10:45:53;101062.73;;;18.92;32.59
72024;BME280;59889;50.700;5.440;2023-02-02T10:48:21;101058.21;;;18.87;32.65
72024;BME280;59889;50.700;5.440;2023-02-02T10:50:46;101051.14;;;18.64;32.62
72024;BME280;59889;50.700;5.440;2023-02-02T10:53:12;101042.74;;;18.78;32.70
72024;BME280;59889;50.700;5.440;2023-02-02T10:55:37;101050.30;;;18.87;32.63
72024;BME280;59889;50.700;5.440;2023-02-02T10:58:03;101049.02;;;18.84;32.62
72024;BME280;59889;50.700;5.440;2023-02-02T11:00:27;101053.74;;;18.48;33.03
72024;BME280;59889;50.700;5.440;2023-02-02T11:02:49;101051.10;;;18.75;32.70
72024;BME280;59889;50.700;5.440;2023-02-02T11:05:20;101051.57;;;18.92;32.55
72024;BME280;59889;50.700;5.440;2023-02-02T11:07:38;101046.87;;;18.50;32.70
72024;BME280;59889;50.700;5.440;2023-02-02T11:10:04;101049.56;;;18.98;32.48
72024;BME280;59889;50.700;5.440;2023-02-02T11:12:32;101047.60;;;18.70;32.86
72024;BME280;59889;50.700;5.440;2023-02-02T11:14:58;101053.85;;;18.74;32.71
72024;BME280;59889;50.700;5.440;2023-02-02T11:17:21;101055.62;;;18.76;32.69
72024;BME280;59889;50.700;5.440;2023-02-02T11:19:44;101061.55;;;18.74;32.51
72024;BME280;59889;50.700;5.440;2023-02-02T11:24:39;101060.48;;;19.09;32.34
72024;BME280;59889;50.700;5.440;2023-02-02T11:27:06;101060.05;;;19.14;32.28
72024;BME280;59889;50.700;5.440;2023-02-02T11:29:26;101056.41;;;19.07;32.37
72024;BME280;59889;50.700;5.440;2023-02-02T11:34:16;101063.62;;;18.61;32.89
72024;BME280;59889;50.700;5.440;2023-02-02T11:39:13;101055.29;;;18.99;32.50
72024;BME280;59889;50.700;5.440;2023-02-02T11:41:30;101058.77;;;19.10;32.36
72024;BME280;59889;50.700;5.440;2023-02-02T11:43:55;101055.80;;;18.85;32.40
72024;BME280;59889;50.700;5.440;2023-02-02T11:47:03;101053.13;;;18.46;33.09
72024;BME280;59889;50.700;5.440;2023-02-02T11:48:51;101042.31;;;19.02;32.51
72024;BME280;59889;50.700;5.440;2023-02-02T11:51:20;101045.15;;;18.94;32.59
72024;BME280;59889;50.700;5.440;2023-02-02T11:53:39;101047.99;;;19.09;32.38
72024;BME280;59889;50.700;5.440;2023-02-02T11:56:04;101045.18;;;19.05;32.44
72024;BME280;59889;50.700;5.440;2023-02-02T11:58:28;101041.94;;;19.09;32.38
72024;BME280;59889;50.700;5.440;2023-02-02T12:00:54;101038.47;;;18.78;32.70
72024;BME280;59889;50.700;5.440;2023-02-02T12:03:35;101038.93;;;19.00;32.47
72024;BME280;59889;50.700;5.440;2023-02-02T12:05:41;101038.10;;;18.74;32.22
72024;BME280;59889;50.700;5.440;2023-02-02T12:08:07;101029.88;;;19.08;32.35
72024;BME280;59889;50.700;5.440;2023-02-02T12:10:38;101023.88;;;19.06;32.39
72024;BME280;59889;50.700;5.440;2023-02-02T12:13:08;101023.23;;;19.08;32.43
72024;BME280;59889;50.700;5.440;2023-02-02T12:15:35;101018.42;;;19.25;32.22
72024;BME280;59889;50.700;5.440;2023-02-02T12:17:47;101013.45;;;19.14;32.35
72024;BME280;59889;50.700;5.440;2023-02-02T12:20:24;101012.58;;;18.95;32.31
72024;BME280;59889;50.700;5.440;2023-02-02T12:25:14;101010.82;;;18.78;32.52
72024;BME280;59889;50.700;5.440;2023-02-02T12:27:36;101009.24;;;18.90;32.63
72024;BME280;59889;50.700;5.440;2023-02-02T12:30:02;101001.06;;;18.96;32.28
72024;BME280;59889;50.700;5.440;2023-02-02T12:32:25;100998.76;;;19.03;32.18
72024;BME280;59889;50.700;5.440;2023-02-02T12:35:01;101000.77;;;18.63;32.09
72024;BME280;59889;50.700;5.440;2023-02-02T12:37:26;101002.95;;;19.20;32.23
72024;BME280;59889;50.700;5.440;2023-02-02T12:39:42;101002.64;;;18.83;32.38
72024;BME280;59889;50.700;5.440;2023-02-02T12:42:07;100999.66;;;18.99;32.22
72024;BME280;59889;50.700;5.440;2023-02-02T12:44:29;101006.14;;;19.02;32.15
72024;BME280;59889;50.700;5.440;2023-02-02T12:46:57;101007.90;;;18.85;32.06
72024;BME280;59889;50.700;5.440;2023-02-02T12:49:25;101010.00;;;19.42;31.97
72024;BME280;59889;50.700;5.440;2023-02-02T12:51:49;101005.39;;;19.48;31.89
72024;BME280;59889;50.700;5.440;2023-02-02T12:54:21;101002.44;;;19.40;32.02